Wind Star — C6CA9 — position and weather

sailwx.info

Track history (hours):
 
Tides and Currents Weather Stations Pressure Air Temp Water Temp Dewpoint Dewpoint Depression Visibility Wind Speed Wind Dir Waves Ship Positions

Wind Star

Operator: Holland America Line

Last reported at 2015-Sep-04 22:33 UTC. Time now 2015-Sep-04 23:08 UTC.
Position N 37°33' E 024°02'.

Length 134 m; draft 4.1 m.

Type: Ship. MMSI: 309163000.

Date/timePositionNaut miles runAvg speedWind from/ knotsBaromVisibWave heightAir tempDewpointWater temp
2015-Sep-04 22:33N 37°33' E 024°02'36 7.1
2015-Sep-04 17:33N 37°31' E 024°47'7 7.0
2015-Sep-04 16:34N 37°32' E 024°56'7 6.9
2015-Sep-04 15:33N 37°30' E 025°04'8 7.7
2015-Sep-04 14:33N 37°28' E 025°14'4 4.5
2015-Sep-04 13:33N 37°27' E 025°19'0 0.0
2015-Sep-04 12:33N 37°27' E 025°19'0 0.0
2015-Sep-04 11:33N 37°27' E 025°19'0 0.0
2015-Sep-04 10:33N 37°27' E 025°19'0 0.0
2015-Sep-04 09:33N 37°27' E 025°19'0 0.0
2015-Sep-04 08:33N 37°27' E 025°19'0 0.0
2015-Sep-04 07:33N 37°27' E 025°19'0 0.0
2015-Sep-04 06:33N 37°27' E 025°19'0 0.0
2015-Sep-04 05:33N 37°27' E 025°19'0 0.0
2015-Sep-04 04:33N 37°27' E 025°19'4 4.1
2015-Sep-04 03:33N 37°27' E 025°14'6 6.3
2015-Sep-04 02:33N 37°24' E 025°08'7 7.1
2015-Sep-04 01:33N 37°18' E 025°02'7 7.0
2015-Sep-04 00:33N 37°12' E 024°58'9 8.1
2015-Sep-03 23:29N 37°04' E 024°54'14 7.0
2015-Sep-03 21:29N 36°51' E 024°59'18 9.3
2015-Sep-03 19:31N 36°38' E 025°16'9 9.9
2015-Sep-03 18:33N 36°29' E 025°21'5 5.3
2015-Sep-03 17:32N 36°25' E 025°25'0 0.3
2015-Sep-03 16:33N 36°25' E 025°25'0 0.1
2015-Sep-03 15:30N 36°25' E 025°25'0 0.0
2015-Sep-03 14:32N 36°25' E 025°25'0 0.0
2015-Sep-03 13:33N 36°25' E 025°25'0 0.0
2015-Sep-03 12:33N 36°25' E 025°25'0 0.1
2015-Sep-03 11:33N 36°25' E 025°25'0 0.1
2015-Sep-03 10:32N 36°25' E 025°25'0 0.0
2015-Sep-03 09:32N 36°25' E 025°25'0 0.1
2015-Sep-03 08:32N 36°25' E 025°25'0 0.0
2015-Sep-03 07:33N 36°25' E 025°25'0 0.0
2015-Sep-03 06:33N 36°25' E 025°25'0 0.1
2015-Sep-03 05:32N 36°26' E 025°25'1 0.8
2015-Sep-03 04:33N 36°25' E 025°24'6 5.3
2015-Sep-03 03:23N 36°32' E 025°25'7 7.8
2015-Sep-03 02:33N 36°34' E 025°32'8 7.9
2015-Sep-03 01:33N 36°35' E 025°42'8 8.1
2015-Sep-03 00:33N 36°37' E 025°52'8 8.3
2015-Sep-02 23:33N 36°39' E 026°02'40 9.8
2015-Sep-02 19:29N 36°50' E 026°50'9 9.4
2015-Sep-02 18:32N 36°52' E 027°00'12 9.5
2015-Sep-02 17:17N 36°56' E 027°14'7 9.5
2015-Sep-02 16:33N 36°57' E 027°23'5 0.4
2015-Sep-02 04:25N 37°01' E 027°26'26 6.5
2015-Sep-02 00:24N 36°36' E 027°30'7 7.9
2015-Sep-01 23:33N 36°32' E 027°37'30 2.1
2015-Sep-01 09:33N 36°28' E 028°14'19 9.7
2015-Sep-01 07:33N 36°30' E 027°50'10 9.5
2015-Sep-01 06:29N 36°33' E 027°38'26 8.4
2015-Sep-01 03:23N 36°55' E 027°21'9 9.3
2015-Sep-01 02:27N 36°58' E 027°11'9 9.8
2015-Sep-01 01:33N 37°04' E 027°03'1410.4
2015-Sep-01 00:12N 37°17' E 026°56'  
2015-Aug-29 04:05N 41°02' E 028°59'0 0.5
2015-Aug-29 03:25N 41°01' E 028°59'6 6.7
2015-Aug-29 02:31N 40°55' E 028°58'7 7.6
2015-Aug-29 01:33N 40°52' E 028°50'  
Track history (hours):
 
Tides and Currents Weather Stations Pressure Air Temp Water Temp Dewpoint Dewpoint Depression Visibility Wind Speed Wind Dir Waves Ship Positions

Wind Star

Operator: Holland America Line

Last reported at 2015-Sep-04 22:33 UTC. Time now 2015-Sep-04 23:08 UTC.
Position N 37°33' E 024°02'.

Length 134 m; draft 4.1 m.

Type: Ship. MMSI: 309163000.

Date/timePositionNaut miles runAvg speedWind from/ knotsBaromVisibWave heightAir tempDewpointWater temp
2015-Sep-04 22:33N 37°33' E 024°02'36 7.1
2015-Sep-04 17:33N 37°31' E 024°47'7 7.0
2015-Sep-04 16:34N 37°32' E 024°56'7 6.9
2015-Sep-04 15:33N 37°30' E 025°04'8 7.7
2015-Sep-04 14:33N 37°28' E 025°14'4 4.5
2015-Sep-04 13:33N 37°27' E 025°19'0 0.0
2015-Sep-04 12:33N 37°27' E 025°19'0 0.0
2015-Sep-04 11:33N 37°27' E 025°19'0 0.0
2015-Sep-04 10:33N 37°27' E 025°19'0 0.0
2015-Sep-04 09:33N 37°27' E 025°19'0 0.0
2015-Sep-04 08:33N 37°27' E 025°19'0 0.0
2015-Sep-04 07:33N 37°27' E 025°19'0 0.0
2015-Sep-04 06:33N 37°27' E 025°19'0 0.0
2015-Sep-04 05:33N 37°27' E 025°19'0 0.0
2015-Sep-04 04:33N 37°27' E 025°19'4 4.1
2015-Sep-04 03:33N 37°27' E 025°14'6 6.3
2015-Sep-04 02:33N 37°24' E 025°08'7 7.1
2015-Sep-04 01:33N 37°18' E 025°02'7 7.0
2015-Sep-04 00:33N 37°12' E 024°58'9 8.1
2015-Sep-03 23:29N 37°04' E 024°54'14 7.0
2015-Sep-03 21:29N 36°51' E 024°59'18 9.3
2015-Sep-03 19:31N 36°38' E 025°16'9 9.9
2015-Sep-03 18:33N 36°29' E 025°21'5 5.3
2015-Sep-03 17:32N 36°25' E 025°25'0 0.3
2015-Sep-03 16:33N 36°25' E 025°25'0 0.1
2015-Sep-03 15:30N 36°25' E 025°25'0 0.0
2015-Sep-03 14:32N 36°25' E 025°25'0 0.0
2015-Sep-03 13:33N 36°25' E 025°25'0 0.0
2015-Sep-03 12:33N 36°25' E 025°25'0 0.1
2015-Sep-03 11:33N 36°25' E 025°25'0 0.1
2015-Sep-03 10:32N 36°25' E 025°25'0 0.0
2015-Sep-03 09:32N 36°25' E 025°25'0 0.1
2015-Sep-03 08:32N 36°25' E 025°25'0 0.0
2015-Sep-03 07:33N 36°25' E 025°25'0 0.0
2015-Sep-03 06:33N 36°25' E 025°25'0 0.1
2015-Sep-03 05:32N 36°26' E 025°25'1 0.8
2015-Sep-03 04:33N 36°25' E 025°24'6 5.3
2015-Sep-03 03:23N 36°32' E 025°25'7 7.8
2015-Sep-03 02:33N 36°34' E 025°32'8 7.9
2015-Sep-03 01:33N 36°35' E 025°42'8 8.1
2015-Sep-03 00:33N 36°37' E 025°52'8 8.3
2015-Sep-02 23:33N 36°39' E 026°02'40 9.8
2015-Sep-02 19:29N 36°50' E 026°50'9 9.4
2015-Sep-02 18:32N 36°52' E 027°00'12 9.5
2015-Sep-02 17:17N 36°56' E 027°14'7 9.5
2015-Sep-02 16:33N 36°57' E 027°23'5 0.4
2015-Sep-02 04:25N 37°01' E 027°26'26 6.5
2015-Sep-02 00:24N 36°36' E 027°30'7 7.9
2015-Sep-01 23:33N 36°32' E 027°37'30 2.1
2015-Sep-01 09:33N 36°28' E 028°14'19 9.7
2015-Sep-01 07:33N 36°30' E 027°50'10 9.5
2015-Sep-01 06:29N 36°33' E 027°38'26 8.4
2015-Sep-01 03:23N 36°55' E 027°21'9 9.3
2015-Sep-01 02:27N 36°58' E 027°11'9 9.8
2015-Sep-01 01:33N 37°04' E 027°03'1410.4
2015-Sep-01 00:12N 37°17' E 026°56'  
2015-Aug-29 04:05N 41°02' E 028°59'0 0.5
2015-Aug-29 03:25N 41°01' E 028°59'6 6.7
2015-Aug-29 02:31N 40°55' E 028°58'7 7.6
2015-Aug-29 01:33N 40°52' E 028°50'  

Dump ship's entire track history